createdAt,value
2022-09-14T00:01:21.062Z,18.60
2022-09-14T00:03:45.762Z,18.60
2022-09-14T00:06:15.586Z,18.60
2022-09-14T00:08:43.607Z,18.50
2022-09-14T00:11:13.197Z,18.40
2022-09-14T00:13:42.112Z,18.40
2022-09-14T00:16:17.762Z,18.40
2022-09-14T00:18:44.918Z,18.30
2022-09-14T00:21:12.746Z,18.30
2022-09-14T00:23:42.082Z,18.40
2022-09-14T00:26:12.304Z,18.50
2022-09-14T00:28:41.291Z,18.40
2022-09-14T00:31:08.832Z,18.40
2022-09-14T00:33:36.241Z,18.30
2022-09-14T00:36:07.407Z,18.30
2022-09-14T00:38:34.392Z,18.30
2022-09-14T00:41:01.960Z,18.30
2022-09-14T00:48:25.513Z,18.40
2022-09-14T00:50:53.756Z,18.40
2022-09-14T00:53:20.609Z,18.50
2022-09-14T00:58:14.387Z,18.50
2022-09-14T01:00:41.115Z,18.40
2022-09-14T01:03:07.800Z,18.40
2022-09-14T01:05:50.802Z,18.40
2022-09-14T01:08:48.142Z,18.40
2022-09-14T01:11:39.657Z,18.50
2022-09-14T01:14:27.476Z,18.50
2022-09-14T01:16:59.031Z,18.60
2022-09-14T01:19:34.815Z,18.50
2022-09-14T01:22:09.414Z,18.50
2022-09-14T01:24:48.548Z,18.50
2022-09-14T01:27:33.613Z,18.50
2022-09-14T01:30:06.946Z,18.70
2022-09-14T01:32:46.651Z,18.50
2022-09-14T01:35:24.813Z,18.60
2022-09-14T01:38:01.338Z,18.60
2022-09-14T01:40:34.064Z,18.60
2022-09-14T01:43:14.466Z,18.60
2022-09-14T01:45:46.841Z,18.60
2022-09-14T01:48:15.853Z,18.60
2022-09-14T01:50:48.504Z,18.60
2022-09-14T01:53:26.203Z,18.60
2022-09-14T01:56:03.292Z,18.60
2022-09-14T01:58:48.472Z,18.60
2022-09-14T02:01:21.915Z,18.60
2022-09-14T02:03:57.887Z,18.60
2022-09-14T02:06:36.269Z,18.60
2022-09-14T02:09:05.312Z,18.70
2022-09-14T02:13:59.418Z,18.70
2022-09-14T02:16:26.504Z,18.60
2022-09-14T02:21:26.431Z,18.60
2022-09-14T02:23:53.685Z,18.50
2022-09-14T02:26:22.936Z,18.60
2022-09-14T02:31:30.292Z,18.60
2022-09-14T02:33:59.771Z,18.60
2022-09-14T02:36:26.341Z,18.60
2022-09-14T02:39:01.442Z,18.60
2022-09-14T02:42:09.380Z,18.60
2022-09-14T02:44:52.323Z,18.60
2022-09-14T02:47:25.379Z,18.60
2022-09-14T02:50:04.502Z,18.50
2022-09-14T02:52:44.703Z,18.50
2022-09-14T02:55:17.220Z,18.50
2022-09-14T02:58:10.076Z,18.60
2022-09-14T03:00:45.552Z,18.50
2022-09-14T03:03:14.004Z,18.60
2022-09-14T03:05:41.333Z,18.60
2022-09-14T03:08:10.192Z,18.60
2022-09-14T03:10:37.411Z,18.60
2022-09-14T03:13:04.551Z,18.50
2022-09-14T03:15:31.379Z,18.60
2022-09-14T03:20:28.783Z,18.60
2022-09-14T03:22:55.726Z,18.70
2022-09-14T03:28:00.650Z,18.60
2022-09-14T03:30:27.925Z,18.60
2022-09-14T03:32:54.627Z,18.60
2022-09-14T03:35:21.545Z,18.60
2022-09-14T03:37:48.202Z,18.50
2022-09-14T03:40:21.342Z,18.60
2022-09-14T03:42:50.410Z,18.60
2022-09-14T03:45:17.922Z,18.60
2022-09-14T03:47:45.198Z,18.70
2022-09-14T03:50:13.022Z,18.70
2022-09-14T03:52:39.875Z,18.70
2022-09-14T03:55:09.136Z,18.70
2022-09-14T04:00:04.551Z,18.70
2022-09-14T04:02:31.303Z,18.70
2022-09-14T04:07:25.119Z,18.70
2022-09-14T04:12:18.791Z,18.60
2022-09-14T04:14:45.457Z,18.60
2022-09-14T04:19:41.474Z,18.60
2022-09-14T04:22:08.322Z,18.60
2022-09-14T04:34:24.857Z,18.60
2022-09-14T04:36:51.491Z,18.60
2022-09-14T04:39:18.265Z,18.60
2022-09-14T04:41:44.899Z,18.60
2022-09-14T04:44:11.758Z,18.60
2022-09-14T04:49:13.418Z,18.60
2022-09-14T04:51:40.075Z,18.50
2022-09-14T04:54:07.486Z,18.50
2022-09-14T04:56:36.871Z,18.60
2022-09-14T04:59:05.649Z,18.60
2022-09-14T05:01:36.219Z,18.60
2022-09-14T05:04:03.723Z,18.60
2022-09-14T05:06:33.357Z,18.60
2022-09-14T05:09:01.663Z,18.50
2022-09-14T05:11:31.071Z,18.50
2022-09-14T05:13:58.694Z,18.40
2022-09-14T05:16:31.252Z,18.50
2022-09-14T05:19:03.797Z,18.50
2022-09-14T05:21:32.559Z,18.50
2022-09-14T05:24:01.884Z,18.40
2022-09-14T05:26:30.153Z,18.50
2022-09-14T05:28:58.663Z,18.50
2022-09-14T05:31:26.828Z,18.50
2022-09-14T05:33:53.788Z,18.50
2022-09-14T05:36:21.198Z,18.50
2022-09-14T05:51:14.199Z,18.60
2022-09-14T06:08:35.053Z,18.60
2022-09-14T06:16:09.527Z,18.60
2022-09-14T06:36:02.421Z,18.50
2022-09-14T06:38:29.905Z,18.40
2022-09-14T06:53:58.091Z,18.20
2022-09-14T07:01:22.433Z,18.00
2022-09-14T07:06:26.610Z,18.00
2022-09-14T07:08:54.440Z,18.00
2022-09-14T07:11:25.726Z,18.00
2022-09-14T07:16:21.876Z,17.90
2022-09-14T07:18:48.780Z,17.90
2022-09-14T07:21:17.961Z,17.90
2022-09-14T07:23:47.284Z,17.80
2022-09-14T07:31:22.577Z,17.80
2022-09-14T07:46:18.185Z,17.80
2022-09-14T07:58:37.133Z,17.80
2022-09-14T08:16:02.755Z,17.90
2022-09-14T08:18:32.242Z,18.00
2022-09-14T08:21:09.850Z,18.10
2022-09-14T08:26:09.705Z,18.10
2022-09-14T08:31:09.033Z,18.10
2022-09-14T08:36:04.864Z,18.20
2022-09-14T08:48:35.715Z,18.00
2022-09-14T08:53:32.975Z,18.00
2022-09-14T08:56:09.374Z,18.00
2022-09-14T08:59:06.743Z,18.10
2022-09-14T09:06:58.776Z,18.20
2022-09-14T09:09:39.632Z,18.20
2022-09-14T09:12:06.519Z,18.30
2022-09-14T09:14:43.977Z,18.20
2022-09-14T09:17:33.464Z,18.20
2022-09-14T09:35:15.796Z,18.30
2022-09-14T09:40:18.560Z,18.50
2022-09-14T09:43:05.111Z,18.50
2022-09-14T09:45:49.721Z,18.40
2022-09-14T09:55:48.843Z,18.50
2022-09-14T10:11:37.800Z,18.40
2022-09-14T10:19:33.509Z,18.60
2022-09-14T10:30:07.207Z,18.80
2022-09-14T10:48:20.442Z,18.70
2022-09-14T10:56:19.721Z,18.50
2022-09-14T10:59:05.597Z,18.30
2022-09-14T11:13:17.473Z,18.30
2022-09-14T11:18:46.062Z,18.30
2022-09-14T11:26:42.302Z,18.50
2022-09-14T11:29:44.240Z,18.50
2022-09-14T11:32:28.510Z,18.50
2022-09-14T11:35:03.368Z,18.50
2022-09-14T11:42:43.652Z,18.40
2022-09-14T11:45:22.286Z,18.40
2022-09-14T11:47:59.284Z,18.50
2022-09-14T11:50:28.658Z,18.90
2022-09-14T11:53:07.546Z,19.10
2022-09-14T11:55:34.704Z,19.30
2022-09-14T11:58:04.904Z,19.30
2022-09-14T12:00:31.716Z,19.40
2022-09-14T12:03:00.187Z,19.30
2022-09-14T12:05:30.265Z,19.40
2022-09-14T12:08:26.126Z,19.20
2022-09-14T12:11:28.573Z,19.10
2022-09-14T12:14:23.829Z,19.00
2022-09-14T12:17:39.326Z,19.20
2022-09-14T12:20:33.799Z,19.30
2022-09-14T12:23:34.448Z,19.10
2022-09-14T12:26:27.998Z,19.30
2022-09-14T12:28:57.786Z,19.30
2022-09-14T12:31:32.931Z,19.30
2022-09-14T12:34:19.842Z,19.50
2022-09-14T12:36:46.449Z,19.60
2022-09-14T12:39:25.813Z,19.30
2022-09-14T12:44:39.494Z,19.50
2022-09-14T12:47:24.481Z,19.30
2022-09-14T12:49:53.519Z,19.20
2022-09-14T12:52:39.171Z,19.10
2022-09-14T12:55:20.571Z,19.00
2022-09-14T12:58:00.395Z,18.90
2022-09-14T13:00:29.715Z,19.00
2022-09-14T13:03:02.000Z,18.90
2022-09-14T13:05:32.176Z,18.90
2022-09-14T13:07:59.500Z,18.90
2022-09-14T13:10:32.070Z,18.90
2022-09-14T13:13:01.899Z,18.80
2022-09-14T13:15:44.872Z,18.90
2022-09-14T13:18:17.231Z,19.00
2022-09-14T13:20:51.795Z,19.10
2022-09-14T13:23:23.772Z,19.20
2022-09-14T13:25:50.800Z,19.30
2022-09-14T13:28:19.773Z,19.30
2022-09-14T13:30:58.311Z,19.40
2022-09-14T13:33:25.557Z,19.50
2022-09-14T13:35:55.245Z,19.50
2022-09-14T13:38:32.178Z,19.50
2022-09-14T13:41:09.180Z,19.40
2022-09-14T13:46:08.026Z,19.20
2022-09-14T13:48:37.406Z,19.00
2022-09-14T13:51:06.018Z,18.90
2022-09-14T13:53:53.493Z,18.90
2022-09-14T13:58:50.307Z,18.80
2022-09-14T14:01:30.260Z,18.70
2022-09-14T14:04:03.268Z,18.60
2022-09-14T14:06:34.794Z,18.50
2022-09-14T14:09:09.755Z,18.30
2022-09-14T14:11:45.561Z,18.20
2022-09-14T14:19:26.328Z,17.90
2022-09-14T14:22:14.676Z,17.80
2022-09-14T14:25:09.122Z,17.60
2022-09-14T14:27:37.663Z,17.50
2022-09-14T14:30:26.860Z,17.40
2022-09-14T14:32:55.987Z,17.30
2022-09-14T14:35:25.837Z,17.30
2022-09-14T14:37:52.560Z,17.40
2022-09-14T14:42:49.314Z,17.20
2022-09-14T14:45:27.354Z,17.20
2022-09-14T14:47:55.608Z,17.00
2022-09-14T14:50:27.669Z,16.90
2022-09-14T14:55:23.754Z,16.80
2022-09-14T14:57:52.448Z,17.00
2022-09-14T15:00:22.548Z,17.10
2022-09-14T15:02:50.332Z,17.20
2022-09-14T15:05:17.569Z,17.30
2022-09-14T15:10:15.747Z,17.30
2022-09-14T15:12:43.117Z,17.20
2022-09-14T15:15:14.673Z,17.20
2022-09-14T15:20:10.307Z,17.10
2022-09-14T15:22:37.349Z,17.10
2022-09-14T15:25:05.448Z,17.20
2022-09-14T15:27:32.997Z,17.20
2022-09-14T15:34:54.190Z,17.60
2022-09-14T15:42:18.453Z,17.80
2022-09-14T15:47:16.618Z,17.90
2022-09-14T15:52:11.350Z,17.80
2022-09-14T15:54:38.939Z,17.80
2022-09-14T15:57:08.229Z,17.80
2022-09-14T15:59:35.147Z,17.80
2022-09-14T16:09:23.350Z,17.90
2022-09-14T16:14:17.194Z,18.00
2022-09-14T16:19:13.790Z,18.10
2022-09-14T16:21:41.960Z,17.90
2022-09-14T16:24:15.736Z,17.80
2022-09-14T16:29:12.209Z,17.80
2022-09-14T16:31:40.522Z,17.90
2022-09-14T16:34:11.810Z,17.80
2022-09-14T16:36:40.049Z,17.80
2022-09-14T16:39:11.187Z,17.80
2022-09-14T16:46:34.780Z,17.70
2022-09-14T16:49:01.568Z,17.60
2022-09-14T16:51:30.480Z,17.50
2022-09-14T16:53:59.671Z,17.50
2022-09-14T16:56:35.336Z,17.60
2022-09-14T16:59:03.698Z,17.60
2022-09-14T17:01:35.730Z,17.60
2022-09-14T17:04:08.276Z,17.50
2022-09-14T17:06:36.559Z,17.40
2022-09-14T17:09:09.701Z,17.50
2022-09-14T17:11:37.543Z,17.40
2022-09-14T17:14:04.814Z,17.40
2022-09-14T17:19:01.232Z,17.30
2022-09-14T17:21:31.993Z,17.30
2022-09-14T17:23:59.408Z,17.30
2022-09-14T17:26:26.505Z,17.20
2022-09-14T17:28:55.697Z,17.10
2022-09-14T17:31:26.309Z,17.20
2022-09-14T17:33:57.813Z,17.10
2022-09-14T17:36:25.314Z,17.10
2022-09-14T17:38:52.529Z,17.10
2022-09-14T17:41:21.812Z,17.10
2022-09-14T17:43:57.112Z,17.00
2022-09-14T17:48:51.946Z,17.00
2022-09-14T17:51:25.552Z,17.00
2022-09-14T17:58:59.361Z,17.10
2022-09-14T18:01:26.180Z,17.00
2022-09-14T18:03:55.761Z,17.00
2022-09-14T18:09:00.169Z,16.90
2022-09-14T18:16:24.084Z,16.90
2022-09-14T18:21:18.778Z,16.80
2022-09-14T18:28:46.905Z,16.80
2022-09-14T18:36:29.972Z,16.80
2022-09-14T18:38:59.984Z,16.70
2022-09-14T18:41:32.380Z,16.60
2022-09-14T18:46:28.566Z,16.50
2022-09-14T18:49:01.024Z,16.50
2022-09-14T18:51:29.589Z,16.50
2022-09-14T18:56:33.155Z,16.40
2022-09-14T19:01:27.696Z,16.40
2022-09-14T19:03:55.996Z,16.40
2022-09-14T19:06:23.046Z,16.30
2022-09-14T19:08:50.300Z,16.30
2022-09-14T19:13:46.302Z,16.30
2022-09-14T19:16:15.972Z,16.30
2022-09-14T19:18:44.002Z,16.20
2022-09-14T19:26:09.024Z,16.20
2022-09-14T19:31:08.534Z,16.20
2022-09-14T19:33:36.196Z,16.10
2022-09-14T19:36:09.413Z,16.20
2022-09-14T19:38:36.894Z,16.20
2022-09-14T19:41:05.135Z,16.20
2022-09-14T19:46:20.231Z,16.10
2022-09-14T19:53:44.072Z,16.20
2022-09-14T20:01:07.683Z,16.20
2022-09-14T20:03:36.773Z,16.10
2022-09-14T20:08:34.860Z,16.20
2022-09-14T20:38:33.764Z,16.10
2022-09-14T20:41:02.674Z,16.10
2022-09-14T20:46:09.230Z,16.00
2022-09-14T20:53:33.947Z,16.00
2022-09-14T20:58:28.822Z,15.90
2022-09-14T21:01:12.179Z,15.90
2022-09-14T21:06:10.700Z,15.90
2022-09-14T21:08:39.564Z,15.90
2022-09-14T21:11:22.673Z,15.90
2022-09-14T21:13:51.262Z,15.90
2022-09-14T21:21:17.123Z,15.90
2022-09-14T21:23:44.250Z,15.90
2022-09-14T21:26:12.328Z,15.90
2022-09-14T21:31:29.844Z,15.90
2022-09-14T21:33:58.962Z,15.90
2022-09-14T21:36:28.366Z,15.80
2022-09-14T21:38:57.268Z,15.80
2022-09-14T21:43:52.883Z,15.80
2022-09-14T21:46:19.981Z,15.80
2022-09-14T21:48:46.908Z,15.80
2022-09-14T21:51:20.995Z,15.80
2022-09-14T21:53:53.304Z,15.80
2022-09-14T21:56:21.610Z,15.70
2022-09-14T22:03:51.865Z,15.80
2022-09-14T22:06:20.329Z,15.80
2022-09-14T22:08:46.966Z,15.80
2022-09-14T22:16:22.438Z,15.80
2022-09-14T22:18:51.445Z,15.80
2022-09-14T22:21:19.586Z,15.80
2022-09-14T22:31:17.657Z,15.80
2022-09-14T22:36:12.123Z,15.80
2022-09-14T22:38:40.943Z,15.80
2022-09-14T22:46:08.333Z,15.80
2022-09-14T22:53:30.852Z,15.70
2022-09-14T22:55:57.679Z,15.70
2022-09-14T23:08:16.743Z,15.60
2022-09-14T23:13:10.414Z,15.50
2022-09-14T23:15:38.545Z,15.50
2022-09-14T23:20:36.295Z,15.40
2022-09-14T23:23:03.212Z,15.40
2022-09-14T23:25:29.928Z,15.40
2022-09-14T23:27:56.907Z,15.40
2022-09-14T23:32:50.841Z,15.40
2022-09-14T23:35:17.817Z,15.30
2022-09-14T23:37:44.518Z,15.30
2022-09-14T23:40:12.717Z,15.30
2022-09-14T23:45:07.053Z,15.30
2022-09-14T23:47:33.678Z,15.30
2022-09-14T23:52:27.408Z,15.20
2022-09-14T23:54:54.092Z,15.20
2022-09-14T23:57:20.764Z,15.20
2022-09-14T23:59:47.387Z,15.10
